sensor_id;sensor_type;location;lat;lon;timestamp;P1;durP1;ratioP1;P2;durP2;ratioP2
55148;SDS011;49539;48.160;11.530;2022-07-29T00:01:29;1.80;;;0.85;;
55148;SDS011;49539;48.160;11.530;2022-07-29T00:03:55;1.40;;;0.75;;
55148;SDS011;49539;48.160;11.530;2022-07-29T00:06:20;1.95;;;0.90;;
55148;SDS011;49539;48.160;11.530;2022-07-29T00:08:46;1.33;;;0.80;;
55148;SDS011;49539;48.160;11.530;2022-07-29T00:11:11;2.65;;;1.25;;
55148;SDS011;49539;48.160;11.530;2022-07-29T00:13:37;2.78;;;1.17;;
55148;SDS011;49539;48.160;11.530;2022-07-29T00:16:02;2.33;;;1.20;;
55148;SDS011;49539;48.160;11.530;2022-07-29T00:18:28;5.15;;;1.30;;
55148;SDS011;49539;48.160;11.530;2022-07-29T00:20:53;2.40;;;1.35;;
55148;SDS011;49539;48.160;11.530;2022-07-29T00:23:19;3.25;;;1.50;;
55148;SDS011;49539;48.160;11.530;2022-07-29T00:25:44;1.30;;;0.98;;
55148;SDS011;49539;48.160;11.530;2022-07-29T00:28:10;1.65;;;0.90;;
55148;SDS011;49539;48.160;11.530;2022-07-29T00:30:35;3.65;;;1.58;;
55148;SDS011;49539;48.160;11.530;2022-07-29T00:33:00;3.83;;;1.33;;
55148;SDS011;49539;48.160;11.530;2022-07-29T00:35:26;2.58;;;1.42;;
55148;SDS011;49539;48.160;11.530;2022-07-29T00:38:13;1.92;;;1.33;;
55148;SDS011;49539;48.160;11.530;2022-07-29T00:40:40;2.28;;;1.50;;
55148;SDS011;49539;48.160;11.530;2022-07-29T00:43:06;2.78;;;1.42;;
55148;SDS011;49539;48.160;11.530;2022-07-29T00:45:32;3.97;;;1.40;;
55148;SDS011;49539;48.160;11.530;2022-07-29T00:47:58;5.38;;;1.58;;
55148;SDS011;49539;48.160;11.530;2022-07-29T00:50:23;2.28;;;1.42;;
55148;SDS011;49539;48.160;11.530;2022-07-29T00:52:49;1.50;;;1.10;;
55148;SDS011;49539;48.160;11.530;2022-07-29T00:55:15;2.30;;;1.48;;
55148;SDS011;49539;48.160;11.530;2022-07-29T00:57:42;1.88;;;1.20;;
55148;SDS011;49539;48.160;11.530;2022-07-29T01:00:10;2.03;;;1.33;;
55148;SDS011;49539;48.160;11.530;2022-07-29T01:02:47;2.05;;;1.20;;
55148;SDS011;49539;48.160;11.530;2022-07-29T01:05:19;2.53;;;1.52;;
55148;SDS011;49539;48.160;11.530;2022-07-29T01:07:48;2.33;;;1.10;;
55148;SDS011;49539;48.160;11.530;2022-07-29T01:10:16;2.25;;;1.25;;
55148;SDS011;49539;48.160;11.530;2022-07-29T01:12:42;1.15;;;0.90;;
55148;SDS011;49539;48.160;11.530;2022-07-29T01:15:09;1.65;;;0.95;;
55148;SDS011;49539;48.160;11.530;2022-07-29T01:17:36;4.45;;;1.00;;
55148;SDS011;49539;48.160;11.530;2022-07-29T01:20:31;1.80;;;1.13;;
55148;SDS011;49539;48.160;11.530;2022-07-29T01:23:26;1.83;;;1.00;;
55148;SDS011;49539;48.160;11.530;2022-07-29T01:32:07;1.65;;;1.02;;
55148;SDS011;49539;48.160;11.530;2022-07-29T01:39:39;1.88;;;1.17;;
55148;SDS011;49539;48.160;11.530;2022-07-29T01:47:35;2.05;;;0.93;;
55148;SDS011;49539;48.160;11.530;2022-07-29T01:50:06;1.63;;;0.70;;
55148;SDS011;49539;48.160;11.530;2022-07-29T01:52:46;0.90;;;0.80;;
55148;SDS011;49539;48.160;11.530;2022-07-29T01:55:18;1.00;;;0.63;;
55148;SDS011;49539;48.160;11.530;2022-07-29T01:57:47;1.00;;;0.88;;
55148;SDS011;49539;48.160;11.530;2022-07-29T02:00:14;1.13;;;0.80;;
55148;SDS011;49539;48.160;11.530;2022-07-29T02:02:42;1.13;;;0.70;;
55148;SDS011;49539;48.160;11.530;2022-07-29T02:05:10;1.52;;;0.80;;
55148;SDS011;49539;48.160;11.530;2022-07-29T02:07:39;1.58;;;1.05;;
55148;SDS011;49539;48.160;11.530;2022-07-29T02:10:05;1.33;;;0.90;;
55148;SDS011;49539;48.160;11.530;2022-07-29T02:12:33;1.10;;;0.70;;
55148;SDS011;49539;48.160;11.530;2022-07-29T02:15:01;2.08;;;1.00;;
55148;SDS011;49539;48.160;11.530;2022-07-29T02:17:31;4.55;;;1.05;;
55148;SDS011;49539;48.160;11.530;2022-07-29T02:20:02;1.42;;;0.80;;
55148;SDS011;49539;48.160;11.530;2022-07-29T02:22:29;1.83;;;0.90;;
55148;SDS011;49539;48.160;11.530;2022-07-29T02:24:58;1.42;;;0.85;;
55148;SDS011;49539;48.160;11.530;2022-07-29T02:27:25;1.42;;;0.82;;
55148;SDS011;49539;48.160;11.530;2022-07-29T02:29:53;1.40;;;0.80;;
55148;SDS011;49539;48.160;11.530;2022-07-29T02:32:21;1.58;;;0.80;;
55148;SDS011;49539;48.160;11.530;2022-07-29T02:34:47;1.08;;;0.82;;
55148;SDS011;49539;48.160;11.530;2022-07-29T02:37:16;1.27;;;0.80;;
55148;SDS011;49539;48.160;11.530;2022-07-29T02:39:43;2.17;;;1.00;;
55148;SDS011;49539;48.160;11.530;2022-07-29T02:42:16;2.15;;;0.98;;
55148;SDS011;49539;48.160;11.530;2022-07-29T02:44:42;1.30;;;0.82;;
55148;SDS011;49539;48.160;11.530;2022-07-29T02:50:13;1.60;;;0.73;;
55148;SDS011;49539;48.160;11.530;2022-07-29T02:52:54;1.35;;;1.10;;
55148;SDS011;49539;48.160;11.530;2022-07-29T03:00:31;1.60;;;0.90;;
55148;SDS011;49539;48.160;11.530;2022-07-29T03:03:02;1.48;;;0.98;;
55148;SDS011;49539;48.160;11.530;2022-07-29T03:05:30;1.65;;;0.95;;
55148;SDS011;49539;48.160;11.530;2022-07-29T03:08:02;1.52;;;0.88;;
55148;SDS011;49539;48.160;11.530;2022-07-29T03:10:30;2.15;;;1.10;;
55148;SDS011;49539;48.160;11.530;2022-07-29T03:12:56;1.77;;;0.88;;
55148;SDS011;49539;48.160;11.530;2022-07-29T03:15:23;2.10;;;1.00;;
55148;SDS011;49539;48.160;11.530;2022-07-29T03:17:49;2.13;;;1.00;;
55148;SDS011;49539;48.160;11.530;2022-07-29T03:20:17;2.13;;;0.82;;
55148;SDS011;49539;48.160;11.530;2022-07-29T03:22:43;1.10;;;0.85;;
55148;SDS011;49539;48.160;11.530;2022-07-29T03:25:12;2.13;;;1.00;;
55148;SDS011;49539;48.160;11.530;2022-07-29T03:27:39;2.47;;;1.20;;
55148;SDS011;49539;48.160;11.530;2022-07-29T03:30:05;1.75;;;1.20;;
55148;SDS011;49539;48.160;11.530;2022-07-29T03:32:32;2.35;;;1.33;;
55148;SDS011;49539;48.160;11.530;2022-07-29T03:34:57;2.60;;;1.42;;
55148;SDS011;49539;48.160;11.530;2022-07-29T03:37:23;1.02;;;0.80;;
55148;SDS011;49539;48.160;11.530;2022-07-29T03:39:48;2.15;;;1.10;;
55148;SDS011;49539;48.160;11.530;2022-07-29T03:42:15;1.77;;;1.08;;
55148;SDS011;49539;48.160;11.530;2022-07-29T03:44:45;1.88;;;1.00;;
55148;SDS011;49539;48.160;11.530;2022-07-29T03:47:14;1.10;;;1.00;;
55148;SDS011;49539;48.160;11.530;2022-07-29T03:49:42;1.02;;;0.73;;
55148;SDS011;49539;48.160;11.530;2022-07-29T03:52:12;2.67;;;1.52;;
55148;SDS011;49539;48.160;11.530;2022-07-29T03:54:37;2.17;;;1.25;;
55148;SDS011;49539;48.160;11.530;2022-07-29T03:57:03;2.30;;;1.20;;
55148;SDS011;49539;48.160;11.530;2022-07-29T03:59:32;1.42;;;1.02;;
55148;SDS011;49539;48.160;11.530;2022-07-29T04:01:59;3.08;;;1.55;;
55148;SDS011;49539;48.160;11.530;2022-07-29T04:04:27;2.25;;;1.10;;
55148;SDS011;49539;48.160;11.530;2022-07-29T04:06:52;2.67;;;1.10;;
55148;SDS011;49539;48.160;11.530;2022-07-29T04:09:18;3.17;;;1.20;;
55148;SDS011;49539;48.160;11.530;2022-07-29T04:11:43;2.47;;;1.27;;
55148;SDS011;49539;48.160;11.530;2022-07-29T04:14:10;1.90;;;0.95;;
55148;SDS011;49539;48.160;11.530;2022-07-29T04:16:35;2.50;;;1.20;;
55148;SDS011;49539;48.160;11.530;2022-07-29T04:19:00;1.13;;;0.98;;
55148;SDS011;49539;48.160;11.530;2022-07-29T04:21:26;2.60;;;1.33;;
55148;SDS011;49539;48.160;11.530;2022-07-29T04:23:51;1.80;;;1.00;;
55148;SDS011;49539;48.160;11.530;2022-07-29T04:26:17;2.05;;;1.38;;
55148;SDS011;49539;48.160;11.530;2022-07-29T04:28:43;1.33;;;1.05;;
55148;SDS011;49539;48.160;11.530;2022-07-29T04:31:09;3.00;;;1.20;;
55148;SDS011;49539;48.160;11.530;2022-07-29T04:33:35;3.22;;;1.20;;
55148;SDS011;49539;48.160;11.530;2022-07-29T04:36:00;3.05;;;1.05;;
55148;SDS011;49539;48.160;11.530;2022-07-29T04:38:26;2.80;;;1.63;;
55148;SDS011;49539;48.160;11.530;2022-07-29T04:40:51;2.58;;;1.30;;
55148;SDS011;49539;48.160;11.530;2022-07-29T04:43:17;2.40;;;1.63;;
55148;SDS011;49539;48.160;11.530;2022-07-29T04:45:42;3.08;;;1.65;;
55148;SDS011;49539;48.160;11.530;2022-07-29T04:48:08;5.25;;;1.58;;
55148;SDS011;49539;48.160;11.530;2022-07-29T04:50:33;4.03;;;2.15;;
55148;SDS011;49539;48.160;11.530;2022-07-29T04:52:59;4.32;;;2.10;;
55148;SDS011;49539;48.160;11.530;2022-07-29T04:55:24;7.07;;;2.40;;
55148;SDS011;49539;48.160;11.530;2022-07-29T04:57:50;2.78;;;1.80;;
55148;SDS011;49539;48.160;11.530;2022-07-29T05:00:15;2.65;;;1.75;;
55148;SDS011;49539;48.160;11.530;2022-07-29T05:02:41;2.83;;;2.00;;
55148;SDS011;49539;48.160;11.530;2022-07-29T05:05:07;3.33;;;1.83;;
55148;SDS011;49539;48.160;11.530;2022-07-29T05:07:32;3.67;;;1.80;;
55148;SDS011;49539;48.160;11.530;2022-07-29T05:09:58;4.55;;;2.00;;
55148;SDS011;49539;48.160;11.530;2022-07-29T05:12:24;3.17;;;1.77;;
55148;SDS011;49539;48.160;11.530;2022-07-29T05:14:50;3.15;;;1.77;;
55148;SDS011;49539;48.160;11.530;2022-07-29T05:17:15;4.15;;;2.13;;
55148;SDS011;49539;48.160;11.530;2022-07-29T05:19:41;4.15;;;1.92;;
55148;SDS011;49539;48.160;11.530;2022-07-29T05:22:06;4.68;;;2.45;;
55148;SDS011;49539;48.160;11.530;2022-07-29T05:24:32;3.78;;;1.92;;
55148;SDS011;49539;48.160;11.530;2022-07-29T05:26:57;3.03;;;1.77;;
55148;SDS011;49539;48.160;11.530;2022-07-29T05:29:23;3.90;;;2.03;;
55148;SDS011;49539;48.160;11.530;2022-07-29T05:31:48;2.63;;;1.75;;
55148;SDS011;49539;48.160;11.530;2022-07-29T05:34:13;3.72;;;1.80;;
55148;SDS011;49539;48.160;11.530;2022-07-29T05:36:39;3.05;;;1.77;;
55148;SDS011;49539;48.160;11.530;2022-07-29T05:39:04;3.47;;;1.55;;
55148;SDS011;49539;48.160;11.530;2022-07-29T05:41:33;2.20;;;1.58;;
55148;SDS011;49539;48.160;11.530;2022-07-29T05:43:58;5.57;;;1.77;;
55148;SDS011;49539;48.160;11.530;2022-07-29T05:46:23;2.80;;;1.50;;
55148;SDS011;49539;48.160;11.530;2022-07-29T05:48:49;2.63;;;1.45;;
55148;SDS011;49539;48.160;11.530;2022-07-29T05:51:14;2.92;;;1.02;;
55148;SDS011;49539;48.160;11.530;2022-07-29T05:53:40;2.88;;;1.73;;
55148;SDS011;49539;48.160;11.530;2022-07-29T05:56:05;5.10;;;1.90;;
55148;SDS011;49539;48.160;11.530;2022-07-29T05:58:32;2.83;;;1.75;;
55148;SDS011;49539;48.160;11.530;2022-07-29T06:00:58;2.33;;;1.40;;
55148;SDS011;49539;48.160;11.530;2022-07-29T06:03:26;2.97;;;1.35;;
55148;SDS011;49539;48.160;11.530;2022-07-29T06:05:51;2.08;;;1.17;;
55148;SDS011;49539;48.160;11.530;2022-07-29T06:08:17;2.28;;;1.13;;
55148;SDS011;49539;48.160;11.530;2022-07-29T06:10:43;2.58;;;1.25;;
55148;SDS011;49539;48.160;11.530;2022-07-29T06:13:08;2.35;;;1.38;;
55148;SDS011;49539;48.160;11.530;2022-07-29T06:15:34;1.95;;;1.08;;
55148;SDS011;49539;48.160;11.530;2022-07-29T06:18:02;6.57;;;1.20;;
55148;SDS011;49539;48.160;11.530;2022-07-29T06:20:28;2.78;;;1.45;;
55148;SDS011;49539;48.160;11.530;2022-07-29T06:22:55;2.47;;;1.10;;
55148;SDS011;49539;48.160;11.530;2022-07-29T06:25:21;1.58;;;1.13;;
55148;SDS011;49539;48.160;11.530;2022-07-29T06:27:46;2.65;;;1.30;;
55148;SDS011;49539;48.160;11.530;2022-07-29T06:30:12;4.68;;;1.40;;
55148;SDS011;49539;48.160;11.530;2022-07-29T06:32:37;1.95;;;1.15;;
55148;SDS011;49539;48.160;11.530;2022-07-29T06:35:03;2.22;;;1.15;;
55148;SDS011;49539;48.160;11.530;2022-07-29T06:37:29;2.40;;;1.30;;
55148;SDS011;49539;48.160;11.530;2022-07-29T06:39:54;2.47;;;1.33;;
55148;SDS011;49539;48.160;11.530;2022-07-29T06:42:41;3.63;;;1.30;;
55148;SDS011;49539;48.160;11.530;2022-07-29T06:45:08;2.03;;;1.13;;
55148;SDS011;49539;48.160;11.530;2022-07-29T06:47:34;2.65;;;1.52;;
55148;SDS011;49539;48.160;11.530;2022-07-29T06:49:59;1.65;;;0.93;;
55148;SDS011;49539;48.160;11.530;2022-07-29T06:52:24;2.28;;;0.95;;
55148;SDS011;49539;48.160;11.530;2022-07-29T06:54:50;1.55;;;1.05;;
55148;SDS011;49539;48.160;11.530;2022-07-29T06:57:16;2.22;;;1.02;;
55148;SDS011;49539;48.160;11.530;2022-07-29T06:59:41;2.20;;;1.25;;
55148;SDS011;49539;48.160;11.530;2022-07-29T07:02:07;1.73;;;1.15;;
55148;SDS011;49539;48.160;11.530;2022-07-29T07:04:32;2.53;;;1.25;;
55148;SDS011;49539;48.160;11.530;2022-07-29T07:06:58;1.92;;;1.00;;
55148;SDS011;49539;48.160;11.530;2022-07-29T07:09:24;2.47;;;1.27;;
55148;SDS011;49539;48.160;11.530;2022-07-29T07:11:50;2.88;;;1.50;;
55148;SDS011;49539;48.160;11.530;2022-07-29T07:14:15;2.90;;;1.52;;
55148;SDS011;49539;48.160;11.530;2022-07-29T07:16:40;1.98;;;1.20;;
55148;SDS011;49539;48.160;11.530;2022-07-29T07:19:06;2.55;;;1.05;;
55148;SDS011;49539;48.160;11.530;2022-07-29T07:21:32;2.03;;;1.00;;
55148;SDS011;49539;48.160;11.530;2022-07-29T07:23:58;1.40;;;0.90;;
55148;SDS011;49539;48.160;11.530;2022-07-29T07:26:25;2.97;;;1.35;;
55148;SDS011;49539;48.160;11.530;2022-07-29T07:28:50;3.90;;;1.52;;
55148;SDS011;49539;48.160;11.530;2022-07-29T07:31:16;3.25;;;1.30;;
55148;SDS011;49539;48.160;11.530;2022-07-29T07:33:41;3.00;;;1.30;;
55148;SDS011;49539;48.160;11.530;2022-07-29T07:36:07;1.98;;;1.20;;
55148;SDS011;49539;48.160;11.530;2022-07-29T07:38:33;2.30;;;1.20;;
55148;SDS011;49539;48.160;11.530;2022-07-29T07:40:58;3.17;;;1.25;;
55148;SDS011;49539;48.160;11.530;2022-07-29T07:43:24;6.38;;;1.40;;
55148;SDS011;49539;48.160;11.530;2022-07-29T07:45:49;2.38;;;1.30;;
55148;SDS011;49539;48.160;11.530;2022-07-29T07:48:14;2.88;;;1.20;;
55148;SDS011;49539;48.160;11.530;2022-07-29T07:50:40;1.58;;;1.10;;
55148;SDS011;49539;48.160;11.530;2022-07-29T07:53:05;1.40;;;0.90;;
55148;SDS011;49539;48.160;11.530;2022-07-29T07:55:31;2.13;;;1.10;;
55148;SDS011;49539;48.160;11.530;2022-07-29T07:57:56;3.08;;;1.02;;
55148;SDS011;49539;48.160;11.530;2022-07-29T08:00:22;1.48;;;0.95;;
55148;SDS011;49539;48.160;11.530;2022-07-29T08:02:47;2.85;;;1.40;;
55148;SDS011;49539;48.160;11.530;2022-07-29T08:05:13;2.67;;;1.10;;
55148;SDS011;49539;48.160;11.530;2022-07-29T08:07:42;1.95;;;1.00;;
55148;SDS011;49539;48.160;11.530;2022-07-29T08:10:12;1.75;;;1.10;;
55148;SDS011;49539;48.160;11.530;2022-07-29T08:12:38;2.67;;;1.20;;
55148;SDS011;49539;48.160;11.530;2022-07-29T08:15:04;1.65;;;1.00;;
55148;SDS011;49539;48.160;11.530;2022-07-29T08:17:32;4.85;;;2.00;;
55148;SDS011;49539;48.160;11.530;2022-07-29T08:19:57;1.65;;;0.88;;
55148;SDS011;49539;48.160;11.530;2022-07-29T08:22:22;4.63;;;1.60;;
55148;SDS011;49539;48.160;11.530;2022-07-29T08:24:48;2.65;;;1.10;;
55148;SDS011;49539;48.160;11.530;2022-07-29T08:27:20;2.17;;;1.05;;
55148;SDS011;49539;48.160;11.530;2022-07-29T08:29:46;1.75;;;1.20;;
55148;SDS011;49539;48.160;11.530;2022-07-29T08:32:12;2.70;;;1.05;;
55148;SDS011;49539;48.160;11.530;2022-07-29T08:34:37;2.65;;;1.33;;
55148;SDS011;49539;48.160;11.530;2022-07-29T08:37:03;1.30;;;1.00;;
55148;SDS011;49539;48.160;11.530;2022-07-29T08:39:28;2.10;;;1.20;;
55148;SDS011;49539;48.160;11.530;2022-07-29T08:41:53;2.40;;;1.10;;
55148;SDS011;49539;48.160;11.530;2022-07-29T08:44:20;3.75;;;1.38;;
55148;SDS011;49539;48.160;11.530;2022-07-29T08:46:46;3.15;;;1.50;;
55148;SDS011;49539;48.160;11.530;2022-07-29T08:49:14;2.08;;;1.45;;
55148;SDS011;49539;48.160;11.530;2022-07-29T08:51:40;2.63;;;1.55;;
55148;SDS011;49539;48.160;11.530;2022-07-29T08:54:06;1.77;;;1.00;;
55148;SDS011;49539;48.160;11.530;2022-07-29T08:56:34;2.22;;;1.42;;
55148;SDS011;49539;48.160;11.530;2022-07-29T08:59:02;1.95;;;1.50;;
55148;SDS011;49539;48.160;11.530;2022-07-29T09:01:30;2.72;;;1.55;;
55148;SDS011;49539;48.160;11.530;2022-07-29T09:03:58;1.40;;;1.20;;
55148;SDS011;49539;48.160;11.530;2022-07-29T09:06:26;2.90;;;1.40;;
55148;SDS011;49539;48.160;11.530;2022-07-29T09:08:58;2.55;;;1.60;;
55148;SDS011;49539;48.160;11.530;2022-07-29T09:11:24;2.83;;;1.50;;
55148;SDS011;49539;48.160;11.530;2022-07-29T09:13:50;2.95;;;1.45;;
55148;SDS011;49539;48.160;11.530;2022-07-29T09:16:15;2.88;;;1.50;;
55148;SDS011;49539;48.160;11.530;2022-07-29T09:18:41;2.17;;;1.38;;
55148;SDS011;49539;48.160;11.530;2022-07-29T09:21:12;2.17;;;1.65;;
55148;SDS011;49539;48.160;11.530;2022-07-29T09:24:13;1.88;;;1.40;;
55148;SDS011;49539;48.160;11.530;2022-07-29T09:26:40;2.47;;;1.80;;
55148;SDS011;49539;48.160;11.530;2022-07-29T09:29:08;1.70;;;1.35;;
55148;SDS011;49539;48.160;11.530;2022-07-29T09:31:45;2.67;;;1.85;;
55148;SDS011;49539;48.160;11.530;2022-07-29T09:34:16;4.90;;;2.10;;
55148;SDS011;49539;48.160;11.530;2022-07-29T09:36:46;3.35;;;1.85;;
55148;SDS011;49539;48.160;11.530;2022-07-29T09:39:13;3.05;;;1.63;;
55148;SDS011;49539;48.160;11.530;2022-07-29T09:41:44;3.20;;;1.58;;
55148;SDS011;49539;48.160;11.530;2022-07-29T09:44:10;2.90;;;1.88;;
55148;SDS011;49539;48.160;11.530;2022-07-29T09:46:36;3.30;;;2.10;;
55148;SDS011;49539;48.160;11.530;2022-07-29T09:49:11;5.15;;;1.85;;
55148;SDS011;49539;48.160;11.530;2022-07-29T09:51:38;5.22;;;2.20;;
55148;SDS011;49539;48.160;11.530;2022-07-29T09:56:48;2.65;;;2.00;;
55148;SDS011;49539;48.160;11.530;2022-07-29T09:59:14;8.73;;;2.00;;
55148;SDS011;49539;48.160;11.530;2022-07-29T10:01:40;2.38;;;1.40;;
55148;SDS011;49539;48.160;11.530;2022-07-29T10:04:06;7.05;;;2.03;;
55148;SDS011;49539;48.160;11.530;2022-07-29T10:06:32;3.22;;;1.90;;
55148;SDS011;49539;48.160;11.530;2022-07-29T10:09:10;3.67;;;1.88;;
55148;SDS011;49539;48.160;11.530;2022-07-29T10:11:36;4.57;;;1.88;;
55148;SDS011;49539;48.160;11.530;2022-07-29T10:14:02;3.42;;;1.90;;
55148;SDS011;49539;48.160;11.530;2022-07-29T10:16:28;3.65;;;1.98;;
55148;SDS011;49539;48.160;11.530;2022-07-29T10:18:58;5.55;;;2.50;;
55148;SDS011;49539;48.160;11.530;2022-07-29T10:21:24;3.78;;;2.20;;
55148;SDS011;49539;48.160;11.530;2022-07-29T10:23:50;3.67;;;1.92;;
55148;SDS011;49539;48.160;11.530;2022-07-29T10:26:16;3.78;;;2.10;;
55148;SDS011;49539;48.160;11.530;2022-07-29T10:28:42;6.15;;;2.58;;
55148;SDS011;49539;48.160;11.530;2022-07-29T10:31:08;2.92;;;2.03;;
55148;SDS011;49539;48.160;11.530;2022-07-29T10:42:02;3.15;;;1.95;;
55148;SDS011;49539;48.160;11.530;2022-07-29T10:44:09;3.42;;;1.60;;
55148;SDS011;49539;48.160;11.530;2022-07-29T10:46:40;3.30;;;1.70;;
55148;SDS011;49539;48.160;11.530;2022-07-29T10:59:50;4.05;;;2.05;;
55148;SDS011;49539;48.160;11.530;2022-07-29T11:05:07;5.18;;;2.15;;
55148;SDS011;49539;48.160;11.530;2022-07-29T11:07:34;7.57;;;2.30;;
55148;SDS011;49539;48.160;11.530;2022-07-29T11:20:38;3.75;;;2.33;;
55148;SDS011;49539;48.160;11.530;2022-07-29T11:23:19;3.45;;;1.70;;
55148;SDS011;49539;48.160;11.530;2022-07-29T11:29:05;3.17;;;2.20;;
55148;SDS011;49539;48.160;11.530;2022-07-29T11:31:42;3.50;;;2.08;;
55148;SDS011;49539;48.160;11.530;2022-07-29T11:39:31;4.32;;;1.60;;
55148;SDS011;49539;48.160;11.530;2022-07-29T11:47:28;2.70;;;1.50;;
55148;SDS011;49539;48.160;11.530;2022-07-29T11:49:55;4.85;;;2.05;;
55148;SDS011;49539;48.160;11.530;2022-07-29T11:52:22;4.65;;;1.92;;
55148;SDS011;49539;48.160;11.530;2022-07-29T11:54:48;3.83;;;1.63;;
55148;SDS011;49539;48.160;11.530;2022-07-29T11:57:18;2.78;;;1.67;;
55148;SDS011;49539;48.160;11.530;2022-07-29T11:59:45;3.28;;;1.98;;
55148;SDS011;49539;48.160;11.530;2022-07-29T12:02:11;3.88;;;1.60;;
55148;SDS011;49539;48.160;11.530;2022-07-29T12:04:53;3.50;;;2.08;;
55148;SDS011;49539;48.160;11.530;2022-07-29T12:07:33;4.97;;;2.05;;
55148;SDS011;49539;48.160;11.530;2022-07-29T12:09:59;2.38;;;1.67;;
55148;SDS011;49539;48.160;11.530;2022-07-29T12:12:24;8.00;;;2.10;;
55148;SDS011;49539;48.160;11.530;2022-07-29T12:14:50;4.18;;;1.90;;
55148;SDS011;49539;48.160;11.530;2022-07-29T12:17:29;2.05;;;1.60;;
55148;SDS011;49539;48.160;11.530;2022-07-29T12:19:59;4.80;;;1.70;;
55148;SDS011;49539;48.160;11.530;2022-07-29T12:22:30;5.90;;;1.95;;
55148;SDS011;49539;48.160;11.530;2022-07-29T12:25:00;3.47;;;1.92;;
55148;SDS011;49539;48.160;11.530;2022-07-29T12:27:27;3.67;;;1.40;;
55148;SDS011;49539;48.160;11.530;2022-07-29T12:32:22;3.47;;;1.90;;
55148;SDS011;49539;48.160;11.530;2022-07-29T12:34:49;3.92;;;1.90;;
55148;SDS011;49539;48.160;11.530;2022-07-29T12:37:15;3.20;;;2.10;;
55148;SDS011;49539;48.160;11.530;2022-07-29T12:39:42;3.65;;;1.80;;
55148;SDS011;49539;48.160;11.530;2022-07-29T12:42:11;5.00;;;1.98;;
55148;SDS011;49539;48.160;11.530;2022-07-29T12:44:50;3.42;;;2.28;;
55148;SDS011;49539;48.160;11.530;2022-07-29T12:47:16;1.98;;;1.25;;
55148;SDS011;49539;48.160;11.530;2022-07-29T12:49:46;3.22;;;1.83;;
55148;SDS011;49539;48.160;11.530;2022-07-29T12:54:54;3.75;;;2.00;;
55148;SDS011;49539;48.160;11.530;2022-07-29T12:57:20;3.53;;;1.92;;
55148;SDS011;49539;48.160;11.530;2022-07-29T12:59:58;2.67;;;1.63;;
55148;SDS011;49539;48.160;11.530;2022-07-29T13:02:25;4.32;;;1.90;;
55148;SDS011;49539;48.160;11.530;2022-07-29T13:04:57;6.20;;;1.65;;
55148;SDS011;49539;48.160;11.530;2022-07-29T13:07:24;4.30;;;2.30;;
55148;SDS011;49539;48.160;11.530;2022-07-29T13:09:52;2.80;;;1.70;;
55148;SDS011;49539;48.160;11.530;2022-07-29T13:12:18;6.50;;;2.08;;
55148;SDS011;49539;48.160;11.530;2022-07-29T13:14:44;6.80;;;1.83;;
55148;SDS011;49539;48.160;11.530;2022-07-29T13:19:42;5.22;;;1.90;;
55148;SDS011;49539;48.160;11.530;2022-07-29T13:22:18;3.45;;;1.77;;
55148;SDS011;49539;48.160;11.530;2022-07-29T13:24:53;2.40;;;1.80;;
55148;SDS011;49539;48.160;11.530;2022-07-29T13:27:24;6.82;;;1.88;;
55148;SDS011;49539;48.160;11.530;2022-07-29T13:29:51;3.78;;;1.85;;
55148;SDS011;49539;48.160;11.530;2022-07-29T13:32:20;2.38;;;1.75;;
55148;SDS011;49539;48.160;11.530;2022-07-29T13:34:46;2.95;;;1.85;;
55148;SDS011;49539;48.160;11.530;2022-07-29T13:37:12;7.53;;;1.85;;
55148;SDS011;49539;48.160;11.530;2022-07-29T13:39:37;3.28;;;2.25;;
55148;SDS011;49539;48.160;11.530;2022-07-29T13:42:03;2.28;;;1.70;;
55148;SDS011;49539;48.160;11.530;2022-07-29T13:44:29;4.78;;;2.50;;
55148;SDS011;49539;48.160;11.530;2022-07-29T13:46:54;3.25;;;1.55;;
55148;SDS011;49539;48.160;11.530;2022-07-29T13:49:21;3.13;;;1.90;;
55148;SDS011;49539;48.160;11.530;2022-07-29T13:51:47;5.15;;;2.13;;
55148;SDS011;49539;48.160;11.530;2022-07-29T13:54:14;2.67;;;1.75;;
55148;SDS011;49539;48.160;11.530;2022-07-29T13:56:39;6.65;;;1.92;;
55148;SDS011;49539;48.160;11.530;2022-07-29T13:59:04;3.15;;;1.95;;
55148;SDS011;49539;48.160;11.530;2022-07-29T14:01:30;3.47;;;1.85;;
55148;SDS011;49539;48.160;11.530;2022-07-29T14:03:55;2.80;;;1.50;;
55148;SDS011;49539;48.160;11.530;2022-07-29T14:06:21;3.30;;;1.83;;
55148;SDS011;49539;48.160;11.530;2022-07-29T14:08:46;3.35;;;1.40;;
55148;SDS011;49539;48.160;11.530;2022-07-29T14:11:12;2.00;;;1.20;;
55148;SDS011;49539;48.160;11.530;2022-07-29T14:13:37;1.92;;;1.20;;
55148;SDS011;49539;48.160;11.530;2022-07-29T14:16:03;2.88;;;1.80;;
55148;SDS011;49539;48.160;11.530;2022-07-29T14:18:28;2.40;;;1.70;;
55148;SDS011;49539;48.160;11.530;2022-07-29T14:20:54;2.60;;;1.45;;
55148;SDS011;49539;48.160;11.530;2022-07-29T14:23:19;2.13;;;1.52;;
55148;SDS011;49539;48.160;11.530;2022-07-29T14:25:44;2.30;;;1.35;;
55148;SDS011;49539;48.160;11.530;2022-07-29T14:28:10;3.55;;;1.50;;
55148;SDS011;49539;48.160;11.530;2022-07-29T14:30:35;3.45;;;1.52;;
55148;SDS011;49539;48.160;11.530;2022-07-29T14:33:00;3.20;;;1.50;;
55148;SDS011;49539;48.160;11.530;2022-07-29T14:35:26;2.38;;;1.70;;
55148;SDS011;49539;48.160;11.530;2022-07-29T14:37:51;2.78;;;1.70;;
55148;SDS011;49539;48.160;11.530;2022-07-29T14:40:17;4.10;;;2.00;;
55148;SDS011;49539;48.160;11.530;2022-07-29T14:42:42;3.65;;;1.92;;
55148;SDS011;49539;48.160;11.530;2022-07-29T14:45:08;3.05;;;1.38;;
55148;SDS011;49539;48.160;11.530;2022-07-29T14:47:34;4.40;;;1.85;;
55148;SDS011;49539;48.160;11.530;2022-07-29T14:49:59;2.08;;;1.40;;
55148;SDS011;49539;48.160;11.530;2022-07-29T14:52:25;3.78;;;1.73;;
55148;SDS011;49539;48.160;11.530;2022-07-29T14:54:50;4.55;;;1.90;;
55148;SDS011;49539;48.160;11.530;2022-07-29T14:57:16;4.63;;;2.00;;
55148;SDS011;49539;48.160;11.530;2022-07-29T14:59:41;2.58;;;1.58;;
55148;SDS011;49539;48.160;11.530;2022-07-29T15:02:07;3.00;;;1.73;;
55148;SDS011;49539;48.160;11.530;2022-07-29T15:04:32;2.47;;;1.67;;
55148;SDS011;49539;48.160;11.530;2022-07-29T15:06:58;2.83;;;1.65;;
55148;SDS011;49539;48.160;11.530;2022-07-29T15:09:24;2.55;;;1.60;;
55148;SDS011;49539;48.160;11.530;2022-07-29T15:11:50;3.75;;;2.17;;
55148;SDS011;49539;48.160;11.530;2022-07-29T15:14:15;3.97;;;1.52;;
55148;SDS011;49539;48.160;11.530;2022-07-29T15:16:41;3.47;;;1.67;;
55148;SDS011;49539;48.160;11.530;2022-07-29T15:19:07;2.72;;;1.55;;
55148;SDS011;49539;48.160;11.530;2022-07-29T15:21:36;3.90;;;2.47;;
55148;SDS011;49539;48.160;11.530;2022-07-29T15:24:01;4.25;;;2.10;;
55148;SDS011;49539;48.160;11.530;2022-07-29T15:26:27;4.78;;;2.00;;
55148;SDS011;49539;48.160;11.530;2022-07-29T15:28:53;3.30;;;1.90;;
55148;SDS011;49539;48.160;11.530;2022-07-29T15:31:20;3.33;;;2.08;;
55148;SDS011;49539;48.160;11.530;2022-07-29T15:33:45;4.28;;;2.03;;
55148;SDS011;49539;48.160;11.530;2022-07-29T15:36:11;5.95;;;2.22;;
55148;SDS011;49539;48.160;11.530;2022-07-29T15:38:37;4.90;;;2.33;;
55148;SDS011;49539;48.160;11.530;2022-07-29T15:41:05;3.15;;;1.85;;
55148;SDS011;49539;48.160;11.530;2022-07-29T15:43:33;4.88;;;2.42;;
55148;SDS011;49539;48.160;11.530;2022-07-29T15:46:00;2.13;;;1.55;;
55148;SDS011;49539;48.160;11.530;2022-07-29T15:48:44;4.47;;;2.33;;
55148;SDS011;49539;48.160;11.530;2022-07-29T15:51:09;4.40;;;2.25;;
55148;SDS011;49539;48.160;11.530;2022-07-29T15:53:35;5.38;;;2.30;;
55148;SDS011;49539;48.160;11.530;2022-07-29T15:56:00;3.33;;;1.95;;